Time;durP1;ratioP1;P1;durP2;ratioP2;P2;SDS_P1;SDS_P2;PMS_P1;PMS_P2;Temp;Humidity;BMP_temperature;BMP_pressure;BME280_temperature;BME280_humidity;BME280_pressure;Samples;Min_cycle;Max_cycle;Signal;HPM_P1;HPM_P2
2023/03/12 00:00:27;;;;;;;4.60;2.00;;;0.40;98.00;;;;;;5072576;28;20488;-68
2023/03/12 00:02:56;;;;;;;3.70;3.00;;;0.20;98.00;;;;;;5055523;28;20460;-68
2023/03/12 00:05:24;;;;;;;3.20;2.13;;;0.20;98.00;;;;;;5073355;28;20455;-68
2023/03/12 00:07:52;;;;;;;2.83;2.17;;;0.10;98.00;;;;;;5073242;28;20514;-68
2023/03/12 00:10:20;;;;;;;3.10;1.57;;;0.00;98.00;;;;;;5073172;28;20460;-67
2023/03/12 00:12:47;;;;;;;3.63;2.30;;;0.00;98.00;;;;;;5073074;28;20893;-68
2023/03/12 00:15:17;;;;;;;2.73;2.30;;;-0.10;98.00;;;;;;5073246;28;20884;-68
2023/03/12 00:17:44;;;;;;;2.63;1.77;;;-0.20;98.00;;;;;;5073136;28;20507;-68
2023/03/12 00:20:12;;;;;;;2.60;2.10;;;-0.10;98.00;;;;;;5073112;28;20495;-67
2023/03/12 00:22:39;;;;;;;2.50;2.10;;;-0.20;98.00;;;;;;5073018;28;20464;-67
2023/03/12 00:25:11;;;;;;;4.43;2.87;;;-0.30;98.00;;;;;;5072833;28;20452;-68
2023/03/12 00:27:40;;;;;;;3.87;2.40;;;-0.20;98.00;;;;;;5072344;28;20460;-68
2023/03/12 00:30:09;;;;;;;4.40;3.00;;;-0.30;98.00;;;;;;5072531;28;20547;-68
2023/03/12 00:32:39;;;;;;;4.37;2.43;;;-0.30;98.00;;;;;;5072435;28;20463;-68
2023/03/12 00:35:07;;;;;;;3.07;2.43;;;-0.30;98.00;;;;;;5072514;28;20456;-68
2023/03/12 00:37:34;;;;;;;3.67;2.57;;;-0.10;98.00;;;;;;5072411;28;20455;-68
2023/03/12 00:40:04;;;;;;;3.00;2.20;;;0.00;98.00;;;;;;5072350;28;20480;-68
2023/03/12 00:42:32;;;;;;;3.83;2.13;;;0.10;98.00;;;;;;5072406;28;20483;-68
2023/03/12 00:44:59;;;;;;;2.60;2.07;;;-0.10;98.00;;;;;;5072348;28;20460;-68
2023/03/12 00:47:26;;;;;;;3.40;2.30;;;-0.30;98.00;;;;;;5072372;28;20449;-68
2023/03/12 00:49:57;;;;;;;4.07;2.20;;;-0.40;98.00;;;;;;5071498;28;20453;-68
2023/03/12 00:52:24;;;;;;;3.00;2.27;;;-0.40;98.00;;;;;;5071749;28;20472;-68
2023/03/12 00:54:51;;;;;;;5.10;2.50;;;-0.20;98.00;;;;;;5071538;28;20458;-68
2023/03/12 00:57:18;;;;;;;3.73;2.67;;;-0.20;98.00;;;;;;5072311;28;20460;-68
2023/03/12 00:59:46;;;;;;;4.27;2.30;;;-0.30;98.00;;;;;;5072148;28;20455;-67
2023/03/12 01:02:13;;;;;;;5.83;2.63;;;-0.40;98.00;;;;;;5054751;28;20513;-68
2023/03/12 01:04:41;;;;;;;4.07;2.60;;;-0.50;98.00;;;;;;5072147;28;20464;-68
2023/03/12 01:07:09;;;;;;;3.07;2.43;;;-0.50;98.00;;;;;;5072290;28;20467;-68
2023/03/12 01:09:37;;;;;;;3.17;2.33;;;-0.50;98.00;;;;;;5072177;28;20457;-68
2023/03/12 01:12:05;;;;;;;6.60;2.57;;;-0.60;98.00;;;;;;5072406;28;20459;-67
2023/03/12 01:14:32;;;;;;;5.13;2.60;;;-0.50;98.00;;;;;;5072158;28;20939;-68
2023/03/12 01:16:59;;;;;;;4.80;2.10;;;-0.50;98.00;;;;;;5072052;28;20457;-67
2023/03/12 01:19:26;;;;;;;7.33;3.10;;;-0.50;98.00;;;;;;5072075;28;20453;-68
2023/03/12 01:21:53;;;;;;;4.53;3.30;;;-0.40;98.00;;;;;;5072100;28;20476;-68
2023/03/12 01:24:21;;;;;;;3.70;2.07;;;-0.40;98.00;;;;;;5071974;28;20525;-68
2023/03/12 01:26:50;;;;;;;2.13;1.97;;;-0.20;98.00;;;;;;5071681;28;20468;-68
2023/03/12 01:29:17;;;;;;;3.37;2.23;;;-0.20;98.00;;;;;;5071706;28;20465;-67
2023/03/12 01:31:45;;;;;;;4.03;2.47;;;-0.30;98.00;;;;;;5071668;28;20467;-67
2023/03/12 01:34:12;;;;;;;5.60;1.97;;;-0.40;98.00;;;;;;5071743;28;20456;-68
2023/03/12 01:36:40;;;;;;;3.20;2.50;;;-0.50;98.00;;;;;;5071628;28;20475;-68
2023/03/12 01:39:07;;;;;;;4.90;3.37;;;-0.40;98.00;;;;;;5071767;28;20449;-68
2023/03/12 01:41:35;;;;;;;2.13;1.83;;;-0.50;98.00;;;;;;5053796;28;20506;-68
2023/03/12 01:44:04;;;;;;;5.03;2.57;;;-0.60;98.00;;;;;;5071603;28;20805;-68
2023/03/12 01:46:34;;;;;;;3.53;2.23;;;-0.50;98.00;;;;;;5071756;28;20471;-68
2023/03/12 01:49:10;;;;;;;3.53;2.57;;;-0.40;98.00;;;;;;5071681;28;20529;-68
2023/03/12 01:51:40;;;;;;;3.20;1.90;;;-0.20;98.00;;;;;;5071717;28;20976;-67
2023/03/12 01:54:13;;;;;;;4.33;2.57;;;-0.30;98.00;;;;;;5071723;28;20460;-68
2023/03/12 01:56:43;;;;;;;3.87;2.47;;;-0.30;98.00;;;;;;5071653;28;20460;-68
2023/03/12 01:59:16;;;;;;;2.47;2.23;;;-0.30;98.00;;;;;;5071673;28;20464;-68
2023/03/12 02:01:44;;;;;;;3.10;2.10;;;-0.20;98.00;;;;;;5071605;28;20492;-68
2023/03/12 02:04:12;;;;;;;3.43;1.97;;;-0.10;98.00;;;;;;5070181;28;20460;-67
2023/03/12 02:06:48;;;;;;;3.50;2.80;;;0.10;98.00;;;;;;5071533;28;20457;-68
2023/03/12 02:09:15;;;;;;;3.80;1.90;;;0.10;98.00;;;;;;5071475;28;20513;-67
2023/03/12 02:11:44;;;;;;;1.87;1.80;;;0.20;98.00;;;;;;5071507;28;20465;-68
2023/03/12 02:14:12;;;;;;;3.93;2.07;;;0.30;98.00;;;;;;5071721;28;20484;-68
2023/03/12 02:16:39;;;;;;;3.40;2.60;;;0.40;98.00;;;;;;5071555;28;20853;-68
2023/03/12 02:19:16;;;;;;;2.13;1.70;;;0.40;98.00;;;;;;5071497;28;20453;-68
2023/03/12 02:21:43;;;;;;;3.93;2.30;;;0.40;98.00;;;;;;5053444;28;20480;-68
2023/03/12 02:24:20;;;;;;;4.00;2.83;;;0.40;98.00;;;;;;5055799;28;20455;-67
2023/03/12 02:26:49;;;;;;;2.07;1.80;;;0.40;98.00;;;;;;5057160;28;20468;-68
2023/03/12 02:29:17;;;;;;;2.37;2.13;;;0.40;98.00;;;;;;5074810;28;20466;-67
2023/03/12 02:31:52;;;;;;;3.93;2.63;;;0.40;98.00;;;;;;5074625;28;20457;-68
2023/03/12 02:34:19;;;;;;;5.83;3.00;;;0.20;98.00;;;;;;5074720;28;20464;-68
2023/03/12 02:36:47;;;;;;;3.93;2.20;;;0.20;98.00;;;;;;5056890;28;20455;-68
2023/03/12 02:39:14;;;;;;;6.80;2.90;;;0.10;98.00;;;;;;5074740;28;20499;-68
2023/03/12 02:41:45;;;;;;;4.23;2.00;;;-0.10;98.00;;;;;;5074359;28;20475;-67
2023/03/12 02:44:17;;;;;;;3.40;2.40;;;-0.10;98.00;;;;;;5074563;28;20453;-68
2023/03/12 02:46:46;;;;;;;6.13;2.40;;;0.10;98.00;;;;;;5057045;28;20451;-67
2023/03/12 02:49:15;;;;;;;2.67;2.03;;;0.20;98.00;;;;;;5074622;28;20467;-68
2023/03/12 02:51:44;;;;;;;3.47;2.27;;;0.30;98.00;;;;;;5074421;28;20456;-67
2023/03/12 02:54:13;;;;;;;2.20;2.00;;;0.50;98.00;;;;;;5074391;28;20457;-67
2023/03/12 02:56:41;;;;;;;3.77;2.80;;;0.50;98.00;;;;;;5074396;28;20459;-68
2023/03/12 02:59:09;;;;;;;3.30;2.43;;;0.50;98.00;;;;;;5074355;28;20471;-68
2023/03/12 03:01:38;;;;;;;2.33;1.87;;;0.30;98.00;;;;;;5074292;28;20511;-68
2023/03/12 03:04:07;;;;;;;2.70;2.03;;;0.10;98.00;;;;;;5074320;28;20460;-68
2023/03/12 03:06:35;;;;;;;2.27;1.67;;;0.00;98.00;;;;;;5056762;28;20817;-68
2023/03/12 03:09:02;;;;;;;1.90;1.90;;;0.10;98.00;;;;;;5074232;28;20456;-68
2023/03/12 03:11:30;;;;;;;6.77;2.73;;;0.30;98.00;;;;;;5074291;28;20806;-68
2023/03/12 03:13:57;;;;;;;1.87;1.83;;;0.60;98.00;;;;;;5074397;28;20464;-68
2023/03/12 03:16:25;;;;;;;6.07;2.50;;;0.70;98.00;;;;;;5074385;28;20468;-68
2023/03/12 03:18:54;;;;;;;2.17;1.90;;;0.60;98.00;;;;;;5073947;28;20505;-68
2023/03/12 03:21:21;;;;;;;1.83;1.73;;;0.70;98.00;;;;;;5074043;28;20492;-68
2023/03/12 03:23:49;;;;;;;2.93;2.00;;;0.60;98.00;;;;;;5055951;28;20539;-68
2023/03/12 03:26:19;;;;;;;3.33;2.43;;;0.60;98.00;;;;;;5073910;28;20460;-68
2023/03/12 03:28:46;;;;;;;1.40;1.40;;;0.40;98.00;;;;;;5073401;28;20457;-68
2023/03/12 03:31:13;;;;;;;1.87;1.80;;;0.50;98.00;;;;;;5073651;28;20460;-67
2023/03/12 03:33:42;;;;;;;4.80;2.30;;;0.40;98.00;;;;;;5073527;28;20460;-67
2023/03/12 03:36:13;;;;;;;3.30;2.10;;;0.40;98.00;;;;;;5072381;28;20457;-68
2023/03/12 03:38:41;;;;;;;3.10;1.90;;;0.40;98.00;;;;;;5073480;28;20543;-68
2023/03/12 03:41:08;;;;;;;1.90;1.90;;;0.50;98.00;;;;;;5073433;28;20491;-68
2023/03/12 03:43:35;;;;;;;3.00;2.13;;;0.40;98.00;;;;;;5073488;28;20940;-67
2023/03/12 03:46:05;;;;;;;2.80;2.10;;;0.60;98.00;;;;;;5073325;28;20506;-67
2023/03/12 03:48:32;;;;;;;2.47;2.20;;;0.60;98.00;;;;;;5073387;28;20453;-68
2023/03/12 03:51:00;;;;;;;2.10;1.73;;;0.50;98.00;;;;;;5073337;28;20518;-68
2023/03/12 03:53:30;;;;;;;3.27;2.17;;;0.40;98.00;;;;;;5073464;28;20499;-68
2023/03/12 03:55:58;;;;;;;3.97;2.40;;;0.40;98.00;;;;;;5073216;28;20957;-68
2023/03/12 03:58:25;;;;;;;1.83;1.73;;;0.40;98.00;;;;;;5073267;28;20456;-68
2023/03/12 04:00:54;;;;;;;1.80;1.60;;;0.40;98.00;;;;;;5073141;28;20530;-68
2023/03/12 04:03:21;;;;;;;3.43;2.33;;;0.30;98.00;;;;;;5073256;28;20452;-67
2023/03/12 04:05:54;;;;;;;2.20;1.43;;;0.40;98.00;;;;;;5055571;28;20992;-68
2023/03/12 04:08:21;;;;;;;4.27;2.10;;;0.40;98.00;;;;;;5073250;28;20471;-67
2023/03/12 04:10:50;;;;;;;3.00;2.07;;;0.50;98.00;;;;;;5073549;28;20813;-67
2023/03/12 04:13:18;;;;;;;3.50;1.77;;;0.30;98.00;;;;;;5073274;28;20463;-68
2023/03/12 04:15:49;;;;;;;1.87;1.77;;;0.40;98.00;;;;;;5073239;28;20463;-68
2023/03/12 04:18:17;;;;;;;4.37;3.17;;;0.40;98.00;;;;;;5072897;28;20473;-68
2023/03/12 04:20:44;;;;;;;2.27;1.93;;;0.50;98.00;;;;;;5072864;28;20452;-68
2023/03/12 04:23:12;;;;;;;2.60;1.90;;;0.50;98.00;;;;;;5072485;28;20460;-67
2023/03/12 04:25:39;;;;;;;2.80;2.20;;;0.50;98.00;;;;;;5072533;28;20453;-68
2023/03/12 04:28:08;;;;;;;1.97;1.40;;;0.50;98.00;;;;;;5072346;28;20456;-68
2023/03/12 04:30:38;;;;;;;3.40;2.20;;;0.50;98.00;;;;;;5072370;28;21140;-68
2023/03/12 04:33:05;;;;;;;2.13;1.90;;;0.40;98.00;;;;;;5054902;28;20561;-68
2023/03/12 04:35:32;;;;;;;1.93;1.80;;;0.40;98.00;;;;;;5072380;28;20463;-68
2023/03/12 04:38:01;;;;;;;3.60;2.60;;;0.30;98.00;;;;;;5072358;28;20460;-67
2023/03/12 04:40:28;;;;;;;2.30;1.97;;;0.50;98.00;;;;;;5054594;28;20457;-68
2023/03/12 04:42:55;;;;;;;4.67;3.10;;;0.70;98.00;;;;;;5071986;28;20480;-68
2023/03/12 04:45:24;;;;;;;2.37;1.83;;;0.80;98.00;;;;;;5072183;28;20460;-67
2023/03/12 04:47:51;;;;;;;2.10;1.47;;;0.70;98.00;;;;;;5054222;28;20456;-68
2023/03/12 04:50:19;;;;;;;2.70;1.93;;;0.70;98.00;;;;;;5072140;28;20499;-68
2023/03/12 04:52:46;;;;;;;2.67;2.37;;;0.70;98.00;;;;;;5072162;28;20474;-68
2023/03/12 04:55:13;;;;;;;3.03;2.17;;;0.80;98.00;;;;;;5072149;28;20463;-68
2023/03/12 04:57:40;;;;;;;5.40;1.90;;;0.90;98.00;;;;;;5072246;28;20460;-67
2023/03/12 05:00:12;;;;;;;2.73;1.70;;;0.80;98.00;;;;;;5071973;28;20452;-67
2023/03/12 05:02:41;;;;;;;2.70;2.50;;;0.80;98.00;;;;;;5072236;28;20562;-67
2023/03/12 05:05:11;;;;;;;3.10;1.73;;;0.70;98.00;;;;;;5054162;28;20453;-68
2023/03/12 05:07:38;;;;;;;5.00;2.20;;;0.80;98.00;;;;;;5072196;28;20935;-68
2023/03/12 05:10:06;;;;;;;2.47;1.80;;;0.90;98.00;;;;;;5072207;28;20846;-68
2023/03/12 05:12:33;;;;;;;2.67;2.10;;;0.80;98.00;;;;;;5072098;28;20488;-68
2023/03/12 05:15:00;;;;;;;1.50;1.50;;;0.90;98.00;;;;;;5072109;28;20518;-67
2023/03/12 05:17:28;;;;;;;2.23;2.10;;;0.70;98.00;;;;;;5072104;28;20931;-67
2023/03/12 05:19:56;;;;;;;3.00;2.00;;;0.70;98.00;;;;;;5071770;28;20456;-68
2023/03/12 05:22:26;;;;;;;2.63;2.43;;;0.80;98.00;;;;;;5071661;28;20491;-68
2023/03/12 05:24:53;;;;;;;2.10;1.80;;;0.80;98.00;;;;;;5071728;28;20452;-68
2023/03/12 05:27:21;;;;;;;3.30;2.17;;;0.80;98.00;;;;;;5071785;28;20511;-68
2023/03/12 05:29:48;;;;;;;2.40;2.00;;;0.90;98.00;;;;;;5071544;28;20518;-68
2023/03/12 05:32:22;;;;;;;3.33;2.20;;;0.90;98.00;;;;;;5053879;28;20453;-68
2023/03/12 05:34:49;;;;;;;2.53;2.00;;;1.10;98.00;;;;;;5071698;28;20459;-68
2023/03/12 05:37:18;;;;;;;3.40;2.00;;;1.20;98.00;;;;;;5071599;28;20923;-68
2023/03/12 05:39:51;;;;;;;1.80;1.67;;;1.20;98.00;;;;;;5071716;28;20467;-68
2023/03/12 05:42:18;;;;;;;2.83;2.00;;;1.20;98.00;;;;;;5071496;28;20480;-68
2023/03/12 05:44:45;;;;;;;3.40;2.23;;;1.20;98.00;;;;;;5071510;28;20456;-67
2023/03/12 05:47:12;;;;;;;2.47;2.33;;;1.20;98.00;;;;;;5071705;28;20460;-67
2023/03/12 05:49:39;;;;;;;1.70;1.67;;;1.20;98.00;;;;;;5071594;28;20954;-68
2023/03/12 05:52:07;;;;;;;4.50;2.50;;;1.00;98.00;;;;;;5071604;28;20456;-68
2023/03/12 05:54:36;;;;;;;2.77;1.70;;;1.00;98.00;;;;;;5071561;28;20485;-68
2023/03/12 05:57:03;;;;;;;3.03;1.90;;;1.00;98.00;;;;;;5071593;28;20452;-67
2023/03/12 05:59:30;;;;;;;3.30;1.77;;;1.20;98.00;;;;;;5074039;28;20849;-68
2023/03/12 06:01:58;;;;;;;1.87;1.87;;;1.20;98.00;;;;;;5074770;28;20491;-68
2023/03/12 06:04:25;;;;;;;2.53;1.73;;;1.30;98.00;;;;;;5074752;28;20483;-68
2023/03/12 06:06:52;;;;;;;3.10;1.67;;;1.40;98.00;;;;;;5075439;28;20455;-68
2023/03/12 06:09:19;;;;;;;2.13;1.80;;;1.30;98.00;;;;;;5075659;28;20456;-67
2023/03/12 06:11:48;;;;;;;1.73;1.63;;;1.30;98.00;;;;;;5075610;28;20539;-68
2023/03/12 06:14:15;;;;;;;4.30;1.80;;;1.30;98.00;;;;;;5075435;28;20460;-68
2023/03/12 06:16:43;;;;;;;2.40;1.87;;;1.30;98.00;;;;;;5057577;28;21095;-68
2023/03/12 06:19:12;;;;;;;10.60;2.20;;;1.20;98.00;;;;;;5057167;28;20977;-68
2023/03/12 06:21:40;;;;;;;1.50;1.43;;;1.20;98.00;;;;;;5075001;28;21008;-68
2023/03/12 06:24:08;;;;;;;3.00;1.90;;;1.30;98.00;;;;;;5074895;28;21001;-68
2023/03/12 06:26:39;;;;;;;5.27;2.83;;;1.50;98.00;;;;;;5074772;28;20456;-67
2023/03/12 06:29:07;;;;;;;2.07;1.73;;;1.50;98.00;;;;;;5074697;28;20460;-68
2023/03/12 06:31:34;;;;;;;2.40;1.63;;;1.60;98.00;;;;;;5074799;28;20802;-68
2023/03/12 06:34:01;;;;;;;2.43;2.10;;;1.50;98.00;;;;;;5074734;28;20453;-68
2023/03/12 06:36:28;;;;;;;4.13;1.80;;;1.40;98.00;;;;;;5074848;28;20935;-68
2023/03/12 06:38:55;;;;;;;3.60;2.40;;;1.40;98.00;;;;;;5074557;28;20479;-68
2023/03/12 06:41:22;;;;;;;3.73;2.63;;;1.60;98.00;;;;;;5074485;28;20457;-67
2023/03/12 06:43:50;;;;;;;3.50;2.20;;;1.70;98.00;;;;;;5074459;28;20534;-68
2023/03/12 06:46:21;;;;;;;1.80;1.70;;;1.90;98.00;;;;;;5074386;28;20457;-67
2023/03/12 06:48:48;;;;;;;3.57;2.03;;;2.00;98.00;;;;;;5074425;28;20457;-68
2023/03/12 06:51:17;;;;;;;3.20;2.03;;;2.10;98.00;;;;;;5074671;28;20543;-68
2023/03/12 06:53:45;;;;;;;5.13;2.30;;;2.20;98.00;;;;;;5074548;28;20453;-68
2023/03/12 06:56:12;;;;;;;6.30;2.50;;;2.20;98.00;;;;;;5074593;28;20452;-68
2023/03/12 06:58:40;;;;;;;3.07;2.20;;;2.20;98.00;;;;;;5074464;28;20456;-67
2023/03/12 07:01:07;;;;;;;3.10;1.90;;;2.10;98.00;;;;;;5074704;28;20465;-65
2023/03/12 07:03:36;;;;;;;13.17;2.57;;;2.10;98.00;;;;;;5074466;28;20496;-65
2023/03/12 07:06:04;;;;;;;2.87;2.00;;;2.10;98.00;;;;;;5074658;28;20459;-65
2023/03/12 07:08:31;;;;;;;2.20;2.00;;;2.20;98.00;;;;;;5074439;28;20457;-64
2023/03/12 07:11:00;;;;;;;3.97;2.20;;;2.20;98.00;;;;;;5074471;28;20461;-65
2023/03/12 07:13:28;;;;;;;2.90;1.87;;;2.10;98.00;;;;;;5074592;28;20539;-65
2023/03/12 07:15:58;;;;;;;4.07;2.77;;;2.10;98.00;;;;;;5074222;28;20510;-64
2023/03/12 07:18:25;;;;;;;3.30;2.00;;;2.30;98.00;;;;;;5074173;28;20456;-65
2023/03/12 07:20:54;;;;;;;2.87;2.50;;;2.40;98.00;;;;;;5073936;28;20825;-64
2023/03/12 07:23:22;;;;;;;4.17;2.53;;;2.30;98.00;;;;;;5073864;28;20516;-64
2023/03/12 07:25:49;;;;;;;7.23;2.80;;;2.30;98.00;;;;;;5073686;28;20457;-64
2023/03/12 07:28:17;;;;;;;3.00;2.50;;;2.40;98.00;;;;;;5073960;28;20453;-65
2023/03/12 07:30:49;;;;;;;6.17;2.00;;;2.50;98.00;;;;;;5073758;28;20522;-65
2023/03/12 07:33:17;;;;;;;4.23;2.10;;;2.60;98.00;;;;;;5073751;28;20449;-64
2023/03/12 07:35:47;;;;;;;3.30;2.40;;;2.60;98.00;;;;;;5073755;28;20459;-64
2023/03/12 07:38:16;;;;;;;5.27;2.37;;;2.60;98.00;;;;;;5073370;28;20522;-65
2023/03/12 07:40:43;;;;;;;6.13;2.93;;;2.60;98.00;;;;;;5073723;28;20460;-65
2023/03/12 07:43:11;;;;;;;2.80;2.00;;;2.40;98.00;;;;;;5073459;28;20480;-64
2023/03/12 07:45:39;;;;;;;5.53;3.30;;;2.40;98.00;;;;;;5073624;28;20453;-64
2023/03/12 07:48:07;;;;;;;3.77;2.53;;;2.40;98.00;;;;;;5073593;28;20480;-65
2023/03/12 07:50:35;;;;;;;5.40;3.40;;;2.40;98.00;;;;;;5073564;28;20450;-65
2023/03/12 07:53:03;;;;;;;5.90;3.00;;;2.30;98.00;;;;;;5073482;28;20832;-64
2023/03/12 07:55:32;;;;;;;4.13;2.67;;;2.40;98.00;;;;;;5073445;28;21096;-64
2023/03/12 07:57:59;;;;;;;4.33;2.90;;;2.40;98.00;;;;;;5073410;28;20958;-64
2023/03/12 08:00:27;;;;;;;5.60;2.60;;;2.40;98.00;;;;;;5073305;28;21078;-65
2023/03/12 08:02:54;;;;;;;4.00;2.70;;;2.40;98.00;;;;;;5073563;28;20477;-64
2023/03/12 08:05:23;;;;;;;3.60;2.40;;;2.40;98.00;;;;;;5073282;28;20863;-65
2023/03/12 08:07:51;;;;;;;9.13;3.20;;;2.50;98.00;;;;;;5073384;28;20832;-64
2023/03/12 08:10:19;;;;;;;7.10;4.20;;;2.40;98.00;;;;;;5073220;28;20504;-64
2023/03/12 08:12:48;;;;;;;6.20;3.30;;;2.40;98.00;;;;;;5055853;28;20449;-65
2023/03/12 08:15:15;;;;;;;2.80;2.07;;;2.40;98.00;;;;;;5073113;28;20502;-65
2023/03/12 08:17:42;;;;;;;4.00;2.87;;;2.50;98.00;;;;;;5073118;28;20466;-65
2023/03/12 08:20:11;;;;;;;5.63;2.93;;;2.60;98.00;;;;;;5055213;28;20465;-65
2023/03/12 08:22:38;;;;;;;5.90;2.60;;;2.80;98.00;;;;;;5072198;28;20491;-65
2023/03/12 08:25:07;;;;;;;4.30;3.03;;;2.90;98.00;;;;;;5072614;28;20946;-65
2023/03/12 08:27:35;;;;;;;4.60;2.03;;;3.00;98.00;;;;;;5072809;28;20548;-64
2023/03/12 08:30:05;;;;;;;6.53;3.77;;;3.00;98.00;;;;;;5072495;28;20834;-64
2023/03/12 08:32:32;;;;;;;3.73;2.83;;;3.00;98.00;;;;;;5055036;28;20500;-64
2023/03/12 08:34:59;;;;;;;5.37;3.90;;;3.20;98.00;;;;;;5072434;28;20515;-65
2023/03/12 08:37:27;;;;;;;2.90;2.57;;;3.20;98.00;;;;;;5072447;28;20459;-65
2023/03/12 08:39:54;;;;;;;4.23;3.10;;;3.20;98.00;;;;;;5072490;28;20466;-65
2023/03/12 08:42:22;;;;;;;2.93;2.63;;;3.40;98.00;;;;;;5072333;28;20482;-65
2023/03/12 08:44:49;;;;;;;4.13;2.70;;;3.70;98.00;;;;;;5072416;28;20458;-64
2023/03/12 08:47:17;;;;;;;3.97;2.70;;;3.80;98.00;;;;;;5072431;28;20466;-64
2023/03/12 08:49:45;;;;;;;5.57;2.80;;;3.90;98.00;;;;;;5072253;28;20464;-64
2023/03/12 08:52:12;;;;;;;4.50;2.77;;;4.00;98.00;;;;;;5072452;28;20459;-65
2023/03/12 08:54:39;;;;;;;6.43;2.80;;;4.00;98.00;;;;;;5072231;28;20463;-65
2023/03/12 08:57:06;;;;;;;4.90;3.13;;;4.00;98.00;;;;;;5054669;28;20519;-65
2023/03/12 08:59:33;;;;;;;5.23;3.10;;;3.80;98.00;;;;;;5072300;28;20955;-64
2023/03/12 09:02:00;;;;;;;3.53;2.77;;;3.80;98.00;;;;;;5072127;28;20462;-65
2023/03/12 09:04:29;;;;;;;4.07;3.20;;;3.90;98.00;;;;;;5072377;28;20459;-64
2023/03/12 09:06:57;;;;;;;4.57;3.00;;;3.80;98.00;;;;;;5072236;28;20469;-64
2023/03/12 09:09:27;;;;;;;3.40;2.67;;;3.80;98.00;;;;;;5054625;28;20969;-64
2023/03/12 09:11:54;;;;;;;4.60;2.73;;;3.80;98.00;;;;;;5072165;28;21001;-65
2023/03/12 09:14:21;;;;;;;3.40;2.77;;;3.90;98.00;;;;;;5076848;28;20819;-65
2023/03/12 09:16:50;;;;;;;8.83;3.23;;;3.90;98.00;;;;;;5092260;28;20456;-65
2023/03/12 09:19:17;;;;;;;6.53;3.40;;;4.00;98.00;;;;;;5070049;28;20458;-65
2023/03/12 09:21:45;;;;;;;6.30;3.33;;;4.00;98.00;;;;;;5071693;28;20467;-64
2023/03/12 09:24:12;;;;;;;6.10;3.40;;;3.90;98.00;;;;;;5084904;28;20495;-65
2023/03/12 09:26:41;;;;;;;6.10;3.77;;;4.10;98.00;;;;;;5091454;28;20458;-65
2023/03/12 09:29:08;;;;;;;7.93;3.30;;;4.30;98.00;;;;;;5091236;28;20898;-64
2023/03/12 09:31:35;;;;;;;7.03;3.73;;;4.30;98.00;;;;;;5091398;28;20963;-64
2023/03/12 09:34:03;;;;;;;6.10;3.93;;;4.50;98.00;;;;;;5090410;28;21081;-65
2023/03/12 09:36:31;;;;;;;5.13;3.33;;;4.60;98.00;;;;;;5091480;28;20490;-65
2023/03/12 09:39:02;;;;;;;7.10;3.30;;;4.60;98.00;;;;;;5091427;28;20448;-65
2023/03/12 09:41:32;;;;;;;6.40;3.53;;;4.70;98.00;;;;;;5073700;28;20508;-65
2023/03/12 09:44:04;;;;;;;5.93;2.80;;;4.80;98.00;;;;;;5091382;28;20493;-65
2023/03/12 09:46:38;;;;;;;9.30;4.60;;;4.70;98.00;;;;;;5091390;28;20461;-65
2023/03/12 09:49:11;;;;;;;5.80;2.93;;;4.70;98.00;;;;;;5091453;28;20457;-64
2023/03/12 09:51:43;;;;;;;9.23;4.20;;;4.60;98.00;;;;;;5091446;28;20875;-65
2023/03/12 09:54:22;;;;;;;6.70;3.20;;;4.60;98.00;;;;;;5091408;28;20463;-65
2023/03/12 09:56:52;;;;;;;20.60;3.60;;;4.60;98.00;;;;;;5091346;28;20831;-65
2023/03/12 09:59:19;;;;;;;4.17;2.63;;;4.70;98.00;;;;;;5091623;28;20471;-65
2023/03/12 10:01:54;;;;;;;5.27;2.73;;;4.80;98.00;;;;;;5091272;28;20456;-65
2023/03/12 10:04:46;;;;;;;6.43;2.83;;;5.00;98.00;;;;;;5091169;28;20478;-65
2023/03/12 10:07:23;;;;;;;3.13;2.93;;;5.10;98.00;;;;;;5071851;28;20462;-65
2023/03/12 10:10:24;;;;;;;3.40;2.90;;;5.30;98.00;;;;;;5091384;28;20456;-65
2023/03/12 10:13:13;;;;;;;6.77;3.90;;;5.40;98.00;;;;;;5076320;28;20471;-64
2023/03/12 10:15:48;;;;;;;6.23;3.17;;;5.40;98.00;;;;;;5090224;28;20455;-65
2023/03/12 10:18:30;;;;;;;3.50;2.93;;;5.60;98.00;;;;;;5090457;28;20539;-65
2023/03/12 10:21:22;;;;;;;4.50;2.87;;;5.80;98.00;;;;;;5083615;28;20451;-65
2023/03/12 10:24:09;;;;;;;10.07;3.70;;;6.00;98.00;;;;;;5074418;28;20483;-65
2023/03/12 10:26:40;;;;;;;4.93;3.27;;;6.10;98.00;;;;;;5074885;28;20453;-65
2023/03/12 10:29:16;;;;;;;4.23;2.53;;;6.40;98.00;;;;;;5085062;28;20472;-65
2023/03/12 10:31:50;;;;;;;3.57;2.90;;;6.50;98.00;;;;;;5086366;28;20971;-65
2023/03/12 10:34:22;;;;;;;7.43;3.30;;;6.80;98.00;;;;;;5073534;28;20459;-65
2023/03/12 10:36:49;;;;;;;4.83;2.33;;;7.00;98.00;;;;;;5091233;28;20459;-65
2023/03/12 10:39:20;;;;;;;7.20;3.20;;;7.30;98.00;;;;;;5091232;28;20457;-65
2023/03/12 10:41:49;;;;;;;4.43;2.73;;;7.60;98.00;;;;;;5091248;28;20512;-65
2023/03/12 10:44:20;;;;;;;3.90;2.20;;;7.70;98.00;;;;;;5092152;28;20836;-65
2023/03/12 10:47:05;;;;;;;3.67;2.60;;;7.90;98.00;;;;;;5094355;28;20445;-64
2023/03/12 10:49:35;;;;;;;3.30;2.70;;;8.10;98.00;;;;;;5094384;28;20462;-65
2023/03/12 10:52:06;;;;;;;2.63;2.33;;;8.20;98.00;;;;;;5076836;28;20459;-65
2023/03/12 10:54:36;;;;;;;3.63;3.03;;;8.20;98.00;;;;;;5094191;28;20468;-65
2023/03/12 10:57:06;;;;;;;3.73;2.57;;;8.30;98.00;;;;;;5094879;28;20456;-65
2023/03/12 10:59:36;;;;;;;3.30;2.30;;;8.40;98.00;;;;;;5094722;28;20458;-65
2023/03/12 11:02:24;;;;;;;3.83;2.87;;;8.40;98.00;;;;;;5094704;28;20462;-65
2023/03/12 11:04:53;;;;;;;6.67;2.80;;;8.40;98.00;;;;;;5093798;28;20904;-65
2023/03/12 11:07:26;;;;;;;3.47;2.73;;;8.40;98.00;;;;;;5094071;28;20459;-65
2023/03/12 11:10:17;;;;;;;4.97;2.63;;;8.40;98.00;;;;;;5093788;28;20461;-65
2023/03/12 11:12:57;;;;;;;3.20;2.40;;;8.40;98.00;;;;;;5094447;28;20946;-65
2023/03/12 11:15:28;;;;;;;4.53;2.77;;;8.40;98.00;;;;;;5094362;28;20463;-65
2023/03/12 11:18:22;;;;;;;4.37;2.80;;;8.30;98.00;;;;;;5093810;28;20455;-65
2023/03/12 11:20:52;;;;;;;4.37;2.87;;;8.20;98.00;;;;;;5094050;28;20455;-64
2023/03/12 11:23:22;;;;;;;4.67;2.97;;;8.30;98.00;;;;;;5094024;28;20569;-66
2023/03/12 11:26:01;;;;;;;4.93;2.80;;;8.30;98.00;;;;;;5094127;28;20459;-65
2023/03/12 11:28:37;;;;;;;4.37;2.70;;;8.30;98.00;;;;;;5094063;28;20506;-65
2023/03/12 11:31:09;;;;;;;4.33;2.33;;;8.50;98.00;;;;;;5093997;28;20454;-65
2023/03/12 11:33:36;;;;;;;3.53;2.73;;;8.60;98.00;;;;;;5093668;28;20452;-65
2023/03/12 11:36:17;;;;;;;6.80;2.53;;;8.80;98.00;;;;;;5093990;28;20505;-65
2023/03/12 11:38:54;;;;;;;4.57;2.43;;;9.00;98.00;;;;;;5093914;28;20883;-65
2023/03/12 11:41:45;;;;;;;7.17;3.10;;;9.40;98.00;;;;;;5094054;28;20879;-66
2023/03/12 11:44:27;;;;;;;4.00;2.50;;;9.90;98.00;;;;;;5093698;28;20559;-66
2023/03/12 11:47:11;;;;;;;4.10;2.73;;;10.60;98.00;;;;;;5092932;28;20451;-65
2023/03/12 11:50:00;;;;;;;3.10;2.23;;;11.10;98.00;;;;;;5093248;28;20514;-65
2023/03/12 11:52:38;;;;;;;5.30;2.50;;;11.30;98.00;;;;;;5093505;28;20478;-65
2023/03/12 11:55:22;;;;;;;5.40;3.10;;;11.20;98.00;;;;;;5093414;28;20594;-65
2023/03/12 11:58:02;;;;;;;2.87;1.80;;;11.10;98.00;;;;;;5093263;28;20854;-65
2023/03/12 12:00:35;;;;;;;8.07;2.27;;;11.00;98.00;;;;;;5076461;28;20462;-65
2023/03/12 12:03:44;;;;;;;6.30;2.20;;;11.10;98.00;;;;;;5093311;28;20463;-65
2023/03/12 12:06:17;;;;;;;2.87;2.00;;;11.20;98.00;;;;;;5092529;28;20486;-66
2023/03/12 12:09:02;;;;;;;4.30;2.47;;;11.30;98.00;;;;;;5074624;28;20966;-66
2023/03/12 12:11:39;;;;;;;3.53;1.60;;;11.30;98.00;;;;;;5093633;28;20451;-65
2023/03/12 12:14:19;;;;;;;1.93;1.50;;;11.30;98.00;;;;;;5093335;28;20477;-65
2023/03/12 12:17:02;;;;;;;3.20;1.60;;;11.30;98.00;;;;;;5092874;28;20455;-65
2023/03/12 12:19:45;;;;;;;3.90;1.53;;;11.20;98.00;;;;;;5092945;28;20460;-66
2023/03/12 12:22:31;;;;;;;3.93;1.40;;;11.30;98.00;;;;;;5093064;28;20456;-64
2023/03/12 12:25:30;;;;;;;1.57;1.10;;;11.30;98.00;;;;;;5092353;28;20490;-65
2023/03/12 12:28:07;;;;;;;1.93;1.43;;;11.20;98.00;;;;;;5052651;28;20467;-65
2023/03/12 12:30:50;;;;;;;1.27;1.00;;;11.30;98.00;;;;;;5035439;28;20468;-65
2023/03/12 12:33:30;;;;;;;1.30;1.10;;;11.20;98.00;;;;;;5052671;28;20454;-65
2023/03/12 12:35:57;;;;;;;1.70;1.10;;;11.30;98.00;;;;;;5052305;28;20825;-66
2023/03/12 12:38:34;;;;;;;1.60;1.27;;;11.20;98.00;;;;;;5052557;28;20462;-66
2023/03/12 12:41:07;;;;;;;1.20;1.10;;;11.20;98.00;;;;;;5052340;28;20460;-66
2023/03/12 12:43:38;;;;;;;1.27;1.10;;;11.40;98.00;;;;;;5052354;28;20486;-65
2023/03/12 12:46:09;;;;;;;2.73;1.20;;;11.50;98.00;;;;;;5052427;28;20454;-65
2023/03/12 12:48:40;;;;;;;1.57;1.20;;;11.60;98.00;;;;;;5052225;28;20811;-66
2023/03/12 12:51:09;;;;;;;1.30;1.10;;;11.70;98.00;;;;;;5052416;28;20465;-66
2023/03/12 12:53:44;;;;;;;1.30;1.00;;;11.70;98.00;;;;;;5052370;28;20457;-65
2023/03/12 12:56:19;;;;;;;1.47;1.17;;;11.90;98.00;;;;;;5052306;28;20465;-65
2023/03/12 12:59:02;;;;;;;2.90;1.53;;;12.00;98.00;;;;;;5052281;28;20959;-66
2023/03/12 13:01:31;;;;;;;1.40;1.10;;;12.10;98.00;;;;;;5052299;28;20474;-66
2023/03/12 13:04:04;;;;;;;2.17;1.47;;;12.10;98.00;;;;;;5081405;28;20487;-66
2023/03/12 13:07:00;;;;;;;2.57;1.20;;;12.10;98.00;;;;;;5072254;28;20833;-66
2023/03/12 13:09:39;;;;;;;1.30;1.20;;;12.10;98.00;;;;;;5072219;28;20952;-66
2023/03/12 13:12:13;;;;;;;2.50;1.50;;;12.10;98.00;;;;;;5072741;28;20460;-66